Time;durP1;ratioP1;P1;durP2;ratioP2;P2;SDS_P1;SDS_P2;PMS_P1;PMS_P2;Temp;Humidity;BMP_temperature;BMP_pressure;BME280_temperature;BME280_humidity;BME280_pressure;Samples;Min_cycle;Max_cycle;Signal;HPM_P1;HPM_P2
2023/05/25 00:00:08;;;;;;;9.30;4.38;;;10.90;64.50;;;;;;5035093;28;20026;-73
2023/05/25 00:02:34;;;;;;;9.23;4.45;;;11.00;63.90;;;;;;5035554;28;20482;-73
2023/05/25 00:05:01;;;;;;;10.38;4.25;;;11.10;64.20;;;;;;5034076;28;20036;-73
2023/05/25 00:07:26;;;;;;;8.48;4.35;;;11.20;64.40;;;;;;5035473;28;20057;-73
2023/05/25 00:09:52;;;;;;;7.68;3.78;;;11.20;64.70;;;;;;5035498;28;20493;-73
2023/05/25 00:12:18;;;;;;;8.60;3.95;;;11.20;64.80;;;;;;5035401;28;20116;-72
2023/05/25 00:14:43;;;;;;;8.02;4.15;;;11.20;64.90;;;;;;5035347;28;20025;-73
2023/05/25 00:17:10;;;;;;;8.98;4.13;;;11.20;65.40;;;;;;5035392;28;20037;-73
2023/05/25 00:19:36;;;;;;;7.68;4.43;;;11.10;65.20;;;;;;5035292;28;20013;-73
2023/05/25 00:22:02;;;;;;;8.88;4.28;;;11.00;64.60;;;;;;5035303;28;20371;-73
2023/05/25 00:24:29;;;;;;;12.93;4.53;;;11.00;64.30;;;;;;5035164;28;20022;-73
2023/05/25 00:26:55;;;;;;;12.13;4.90;;;10.90;64.10;;;;;;5035280;28;20030;-72
2023/05/25 00:29:21;;;;;;;11.15;3.90;;;10.70;63.80;;;;;;5035220;28;20013;-73
2023/05/25 00:31:48;;;;;;;13.93;4.45;;;10.70;63.90;;;;;;5035096;28;20021;-73
2023/05/25 00:34:14;;;;;;;8.65;4.13;;;10.50;63.30;;;;;;5035149;28;20470;-73
2023/05/25 00:36:42;;;;;;;8.25;3.78;;;10.50;63.60;;;;;;5035028;28;20052;-73
2023/05/25 00:39:08;;;;;;;8.43;3.95;;;10.60;63.20;;;;;;5034975;28;20021;-72
2023/05/25 00:41:40;;;;;;;9.45;4.13;;;10.70;63.20;;;;;;5034897;28;20052;-71
2023/05/25 00:44:06;;;;;;;11.10;4.30;;;10.80;62.70;;;;;;5035026;28;20034;-72
2023/05/25 00:46:43;;;;;;;7.57;3.45;;;10.70;62.40;;;;;;5034805;28;20524;-72
2023/05/25 00:49:12;;;;;;;10.70;3.60;;;10.80;62.10;;;;;;5034597;28;20048;-72
2023/05/25 00:51:38;;;;;;;7.30;3.38;;;10.90;61.70;;;;;;5034706;28;20022;-71
2023/05/25 00:54:04;;;;;;;10.27;3.90;;;11.00;61.60;;;;;;5034757;28;20482;-72
2023/05/25 00:56:31;;;;;;;9.82;4.05;;;11.00;61.30;;;;;;5034777;28;20064;-72
2023/05/25 00:59:03;;;;;;;9.50;3.80;;;11.00;60.90;;;;;;5034648;28;20390;-72
2023/05/25 01:01:32;;;;;;;13.32;3.78;;;10.90;61.00;;;;;;5034643;28;20030;-72
2023/05/25 01:04:00;;;;;;;11.32;3.72;;;10.90;60.60;;;;;;5034504;28;20056;-72
2023/05/25 01:06:32;;;;;;;9.32;4.10;;;10.80;61.00;;;;;;5034513;28;20477;-72
2023/05/25 01:09:03;;;;;;;9.40;3.28;;;10.80;61.00;;;;;;5034533;28;20030;-72
2023/05/25 01:11:34;;;;;;;10.38;3.95;;;10.80;60.90;;;;;;5034268;28;20021;-72
2023/05/25 01:14:01;;;;;;;9.20;3.60;;;10.80;60.50;;;;;;5034049;28;20079;-72
2023/05/25 01:16:28;;;;;;;12.02;3.78;;;10.70;61.20;;;;;;5034318;28;20048;-71
2023/05/25 01:18:54;;;;;;;10.05;3.60;;;10.60;61.20;;;;;;5033843;28;20029;-73
2023/05/25 01:21:40;;;;;;;9.90;3.45;;;10.60;62.10;;;;;;5034183;28;20049;-72
2023/05/25 01:24:12;;;;;;;9.85;3.55;;;10.60;61.60;;;;;;5034160;28;20025;-73
2023/05/25 01:26:53;;;;;;;7.43;3.65;;;10.60;61.30;;;;;;5034158;28;20022;-73
2023/05/25 01:29:20;;;;;;;9.85;3.97;;;10.60;61.00;;;;;;5034048;28;20022;-73
2023/05/25 01:31:46;;;;;;;7.57;3.40;;;10.70;61.00;;;;;;5033836;28;20029;-72
2023/05/25 01:34:14;;;;;;;7.72;2.95;;;10.80;60.80;;;;;;5033950;28;20371;-72
2023/05/25 01:36:40;;;;;;;6.75;3.50;;;10.80;60.60;;;;;;5033742;28;20025;-71
2023/05/25 01:39:06;;;;;;;6.82;3.03;;;10.80;60.60;;;;;;5033836;28;20076;-72
2023/05/25 01:41:31;;;;;;;10.63;3.45;;;10.80;60.30;;;;;;5033778;28;20033;-72
2023/05/25 01:43:57;;;;;;;10.75;3.38;;;10.70;60.40;;;;;;5033670;28;20029;-72
2023/05/25 01:46:35;;;;;;;8.40;3.65;;;10.70;60.50;;;;;;5033688;28;20025;-71
2023/05/25 01:49:20;;;;;;;8.30;3.17;;;10.60;60.70;;;;;;5033775;28;20063;-72
2023/05/25 01:51:54;;;;;;;7.25;3.58;;;10.70;61.00;;;;;;5033601;28;20116;-72
2023/05/25 01:54:21;;;;;;;11.25;3.40;;;10.70;60.60;;;;;;5033827;28;20201;-72
2023/05/25 01:56:50;;;;;;;9.57;3.67;;;10.70;60.60;;;;;;5033719;28;20100;-72
2023/05/25 01:59:20;;;;;;;13.45;4.18;;;10.70;60.50;;;;;;5033583;28;20162;-72
2023/05/25 02:01:47;;;;;;;8.10;2.97;;;10.70;60.50;;;;;;5033600;28;20056;-72
2023/05/25 02:04:16;;;;;;;7.90;3.65;;;10.70;60.50;;;;;;5033485;28;20029;-72
2023/05/25 02:06:41;;;;;;;9.60;3.35;;;10.80;60.30;;;;;;5033487;28;20108;-71
2023/05/25 02:09:07;;;;;;;10.77;3.88;;;10.70;60.30;;;;;;5033424;28;20049;-72
2023/05/25 02:11:32;;;;;;;12.70;4.10;;;10.70;60.40;;;;;;5033226;28;20034;-72
2023/05/25 02:13:58;;;;;;;14.05;4.00;;;10.50;61.10;;;;;;5033267;28;20479;-72
2023/05/25 02:16:23;;;;;;;8.25;3.50;;;10.40;61.30;;;;;;5033292;28;20026;-72
2023/05/25 02:18:49;;;;;;;6.65;3.22;;;10.30;61.90;;;;;;5033184;28;20025;-72
2023/05/25 02:21:15;;;;;;;9.60;3.55;;;10.40;61.90;;;;;;5032822;28;20534;-72
2023/05/25 02:23:41;;;;;;;10.55;4.03;;;10.40;61.80;;;;;;5033074;28;20025;-72
2023/05/25 02:26:07;;;;;;;10.60;3.67;;;10.40;62.00;;;;;;5033108;28;20021;-72
2023/05/25 02:28:32;;;;;;;8.35;3.42;;;10.40;61.90;;;;;;5033087;28;20057;-72
2023/05/25 02:30:58;;;;;;;8.75;3.63;;;10.40;62.20;;;;;;5031778;28;20048;-72
2023/05/25 02:33:23;;;;;;;8.55;3.45;;;10.40;61.90;;;;;;5032878;28;20033;-71
2023/05/25 02:35:49;;;;;;;9.70;3.72;;;10.50;61.70;;;;;;5032973;28;20555;-72
2023/05/25 02:38:15;;;;;;;8.60;3.22;;;10.50;61.60;;;;;;5032992;28;20532;-72
2023/05/25 02:40:40;;;;;;;7.78;3.47;;;10.50;61.90;;;;;;5033138;28;20013;-72
2023/05/25 02:43:06;;;;;;;11.65;3.53;;;10.60;61.60;;;;;;5032807;28;20104;-72
2023/05/25 02:45:31;;;;;;;11.50;3.70;;;10.50;61.40;;;;;;5032891;28;20097;-72
2023/05/25 02:47:57;;;;;;;11.05;4.00;;;10.50;61.70;;;;;;5032412;28;20430;-73
2023/05/25 02:50:22;;;;;;;10.23;4.07;;;10.30;62.50;;;;;;5032623;28;20033;-72
2023/05/25 02:52:48;;;;;;;8.63;3.92;;;10.30;62.60;;;;;;5032513;28;20045;-72
2023/05/25 02:55:13;;;;;;;7.43;3.83;;;10.30;62.30;;;;;;5032764;28;20029;-72
2023/05/25 02:57:39;;;;;;;11.57;3.63;;;10.30;62.50;;;;;;5032691;28;20056;-72
2023/05/25 03:00:06;;;;;;;7.15;3.35;;;10.40;62.10;;;;;;5031513;28;20382;-72
2023/05/25 03:02:32;;;;;;;9.85;3.72;;;10.40;62.20;;;;;;5032542;28;20075;-71
2023/05/25 03:04:58;;;;;;;8.43;3.53;;;10.40;62.30;;;;;;5031222;28;20104;-72
2023/05/25 03:07:25;;;;;;;10.70;3.53;;;10.40;62.40;;;;;;5032682;28;20022;-73
2023/05/25 03:09:51;;;;;;;7.47;3.85;;;10.50;62.50;;;;;;5032554;28;20100;-72
2023/05/25 03:12:16;;;;;;;11.75;4.25;;;10.50;62.20;;;;;;5032323;28;20172;-71
2023/05/25 03:14:42;;;;;;;12.43;3.92;;;10.40;62.50;;;;;;5032421;28;20107;-72
2023/05/25 03:17:07;;;;;;;10.15;3.95;;;10.30;62.70;;;;;;5032367;28;20026;-72
2023/05/25 03:19:33;;;;;;;10.70;4.03;;;10.30;62.70;;;;;;5032305;28;20017;-72
2023/05/25 03:21:59;;;;;;;9.55;3.90;;;10.30;62.80;;;;;;5032402;28;20045;-72
2023/05/25 03:24:25;;;;;;;14.38;4.40;;;10.20;62.90;;;;;;5032345;28;20115;-71
2023/05/25 03:26:51;;;;;;;19.45;4.53;;;10.20;63.20;;;;;;5032497;28;20017;-72
2023/05/25 03:29:16;;;;;;;10.20;3.85;;;10.00;64.20;;;;;;5032563;28;20038;-72
2023/05/25 03:31:42;;;;;;;9.57;4.13;;;10.00;64.10;;;;;;5032357;28;20032;-73
2023/05/25 03:34:08;;;;;;;13.85;4.65;;;10.00;63.60;;;;;;5034127;28;20429;-73
2023/05/25 03:36:33;;;;;;;11.88;3.95;;;10.00;64.10;;;;;;5036311;28;20428;-73
2023/05/25 03:38:59;;;;;;;9.95;3.95;;;10.00;64.00;;;;;;5036187;28;20022;-73
2023/05/25 03:41:25;;;;;;;11.73;4.35;;;10.20;63.70;;;;;;5036105;28;20462;-73
2023/05/25 03:43:51;;;;;;;8.85;3.88;;;10.20;63.40;;;;;;5036199;28;20032;-73
2023/05/25 03:46:17;;;;;;;10.57;4.18;;;10.20;63.20;;;;;;5035936;28;20033;-73
2023/05/25 03:48:42;;;;;;;13.98;4.50;;;10.30;63.80;;;;;;5035712;28;20057;-73
2023/05/25 03:51:08;;;;;;;9.10;3.80;;;10.30;62.80;;;;;;5035799;28;20084;-72
2023/05/25 03:53:33;;;;;;;8.32;4.10;;;10.40;62.60;;;;;;5035729;28;20076;-73
2023/05/25 03:55:59;;;;;;;16.63;5.05;;;10.40;62.30;;;;;;5035793;28;20022;-72
2023/05/25 03:58:25;;;;;;;12.82;4.90;;;10.40;62.10;;;;;;5035867;28;20473;-73
2023/05/25 04:00:51;;;;;;;14.23;4.00;;;10.40;62.20;;;;;;5035747;28;20052;-73
2023/05/25 04:03:17;;;;;;;9.50;4.28;;;10.40;62.10;;;;;;5035560;28;20435;-73
2023/05/25 04:05:44;;;;;;;12.65;4.97;;;10.40;62.10;;;;;;5035762;28;20451;-73
2023/05/25 04:08:13;;;;;;;11.48;4.68;;;10.20;62.60;;;;;;5035696;28;20562;-73
2023/05/25 04:10:38;;;;;;;13.10;4.95;;;10.20;62.80;;;;;;5034500;28;20021;-73
2023/05/25 04:13:04;;;;;;;11.10;3.90;;;10.20;62.70;;;;;;5035611;28;20037;-73
2023/05/25 04:15:30;;;;;;;14.27;4.88;;;10.10;63.20;;;;;;5035516;28;20022;-73
2023/05/25 04:17:58;;;;;;;10.35;4.05;;;10.10;63.20;;;;;;5035444;28;20033;-73
2023/05/25 04:20:23;;;;;;;15.00;4.85;;;10.10;63.70;;;;;;5035434;28;20047;-73
2023/05/25 04:22:49;;;;;;;12.18;4.70;;;9.90;64.30;;;;;;5035450;28;20021;-73
2023/05/25 04:25:15;;;;;;;12.65;5.15;;;10.00;64.10;;;;;;5035268;28;20026;-73
2023/05/25 04:27:41;;;;;;;10.82;4.82;;;10.20;63.80;;;;;;5034004;28;20026;-73
2023/05/25 04:30:07;;;;;;;14.43;4.93;;;10.20;63.20;;;;;;5035195;28;20028;-73
2023/05/25 04:32:36;;;;;;;12.35;4.03;;;10.30;63.00;;;;;;5034990;28;20049;-72
2023/05/25 04:35:02;;;;;;;12.85;4.55;;;10.40;62.90;;;;;;5035204;28;20018;-73
2023/05/25 04:37:29;;;;;;;14.35;4.72;;;10.50;63.60;;;;;;5035112;28;20068;-73
2023/05/25 04:39:56;;;;;;;12.25;4.30;;;10.30;62.60;;;;;;5035017;28;20022;-73
2023/05/25 04:42:22;;;;;;;12.15;4.90;;;10.40;62.50;;;;;;5035368;28;20025;-73
2023/05/25 04:44:49;;;;;;;15.90;5.55;;;10.50;62.10;;;;;;5034628;28;20017;-73
2023/05/25 04:47:15;;;;;;;11.07;5.07;;;10.50;62.40;;;;;;5035201;28;20034;-73
2023/05/25 04:49:41;;;;;;;13.27;5.00;;;10.30;62.50;;;;;;5034749;28;20071;-73
2023/05/25 04:52:07;;;;;;;12.70;4.70;;;10.30;62.80;;;;;;5034696;28;20037;-72
2023/05/25 04:54:33;;;;;;;15.80;4.70;;;10.30;62.90;;;;;;5034546;28;20037;-73
2023/05/25 04:56:58;;;;;;;15.68;5.72;;;10.20;63.20;;;;;;5034717;28;20036;-72
2023/05/25 04:59:24;;;;;;;12.85;4.97;;;10.20;63.40;;;;;;5034632;28;20025;-73
2023/05/25 05:01:49;;;;;;;13.02;3.97;;;10.30;63.10;;;;;;5034698;28;20128;-73
2023/05/25 05:04:16;;;;;;;9.80;4.53;;;10.40;63.00;;;;;;5034591;28;20025;-73
2023/05/25 05:06:42;;;;;;;12.48;4.43;;;10.40;62.80;;;;;;5034509;28;20021;-73
2023/05/25 05:09:07;;;;;;;12.65;5.10;;;10.50;62.50;;;;;;5034484;28;20029;-73
2023/05/25 05:11:33;;;;;;;10.50;4.78;;;10.60;61.90;;;;;;5034340;28;20031;-73
2023/05/25 05:13:58;;;;;;;12.18;4.85;;;10.60;61.90;;;;;;5034147;28;20036;-73
2023/05/25 05:16:24;;;;;;;16.83;5.47;;;10.60;62.20;;;;;;5034367;28;20031;-73
2023/05/25 05:18:49;;;;;;;15.02;5.78;;;10.60;62.30;;;;;;5033991;28;20068;-73
2023/05/25 05:21:15;;;;;;;10.63;4.47;;;10.60;62.10;;;;;;5034168;28;20013;-73
2023/05/25 05:23:44;;;;;;;15.75;4.70;;;10.60;62.50;;;;;;5032929;28;20022;-73
2023/05/25 05:26:13;;;;;;;15.02;5.30;;;10.70;62.30;;;;;;5034120;28;20037;-73
2023/05/25 05:28:39;;;;;;;15.75;5.38;;;10.90;61.90;;;;;;5033647;28;20013;-73
2023/05/25 05:31:06;;;;;;;12.13;5.13;;;10.80;61.80;;;;;;5033434;28;20052;-73
2023/05/25 05:33:32;;;;;;;12.98;5.50;;;10.70;62.00;;;;;;5033858;28;20072;-73
2023/05/25 05:35:58;;;;;;;13.43;5.88;;;10.70;62.80;;;;;;5033837;28;20057;-73
2023/05/25 05:38:23;;;;;;;14.80;5.78;;;10.60;62.80;;;;;;5032454;28;20471;-73
2023/05/25 05:40:49;;;;;;;10.80;4.70;;;10.70;63.00;;;;;;5033619;28;20068;-72
2023/05/25 05:43:14;;;;;;;8.68;4.45;;;10.80;62.30;;;;;;5033513;28;20359;-71
2023/05/25 05:45:40;;;;;;;15.55;6.15;;;10.90;62.20;;;;;;5033651;28;20378;-71
2023/05/25 05:48:08;;;;;;;14.98;5.75;;;10.90;61.70;;;;;;5033403;28;20042;-70
2023/05/25 05:50:38;;;;;;;17.55;6.72;;;10.90;62.40;;;;;;5033049;28;20022;-71
2023/05/25 05:53:05;;;;;;;12.80;5.60;;;10.80;63.10;;;;;;5033400;28;20037;-71
2023/05/25 05:55:32;;;;;;;17.85;6.47;;;10.80;63.20;;;;;;5033231;28;20056;-71
2023/05/25 05:57:58;;;;;;;14.85;6.10;;;10.70;63.10;;;;;;5031564;28;20048;-73
2023/05/25 06:00:24;;;;;;;16.33;5.65;;;10.70;64.10;;;;;;5032334;28;20021;-72
2023/05/25 06:02:50;;;;;;;15.30;4.65;;;10.70;64.80;;;;;;5033401;28;20033;-72
2023/05/25 06:05:16;;;;;;;11.75;5.43;;;10.90;63.80;;;;;;5033451;28;20026;-72
2023/05/25 06:07:42;;;;;;;12.02;5.78;;;11.10;64.50;;;;;;5033266;28;20108;-72
2023/05/25 06:10:08;;;;;;;14.00;5.60;;;11.30;63.10;;;;;;5033342;28;20052;-72
2023/05/25 06:12:33;;;;;;;9.35;5.30;;;11.40;62.90;;;;;;5032960;28;20541;-72
2023/05/25 06:14:59;;;;;;;14.07;5.82;;;11.50;62.50;;;;;;5039486;28;20029;-73
2023/05/25 06:17:27;;;;;;;19.25;5.65;;;11.70;63.00;;;;;;5032012;28;20378;-73
2023/05/25 06:19:52;;;;;;;12.75;5.32;;;11.80;62.10;;;;;;5033036;28;20029;-72
2023/05/25 06:22:18;;;;;;;15.88;5.88;;;11.80;61.90;;;;;;5033138;28;20363;-73
2023/05/25 06:24:44;;;;;;;21.63;5.97;;;11.70;61.40;;;;;;5033015;28;20033;-73
2023/05/25 06:27:09;;;;;;;12.88;5.75;;;11.70;60.50;;;;;;5031846;28;20029;-73
2023/05/25 06:29:35;;;;;;;11.30;5.10;;;11.70;61.80;;;;;;5031852;28;20025;-73
2023/05/25 06:32:00;;;;;;;15.80;5.35;;;11.90;61.80;;;;;;5032948;28;20152;-73
2023/05/25 06:34:26;;;;;;;13.15;5.88;;;11.90;61.20;;;;;;5033009;28;20030;-72
2023/05/25 06:36:51;;;;;;;12.07;5.13;;;11.90;61.40;;;;;;5032781;28;20060;-73
2023/05/25 06:39:17;;;;;;;11.82;4.88;;;12.00;61.70;;;;;;5031721;28;20367;-73
2023/05/25 06:41:43;;;;;;;13.82;4.93;;;12.10;62.00;;;;;;5031529;28;20132;-72
2023/05/25 06:44:09;;;;;;;20.05;5.28;;;12.30;62.90;;;;;;5032927;28;20029;-70
2023/05/25 06:46:35;;;;;;;13.98;5.20;;;12.60;67.30;;;;;;5032954;28;20032;-68
2023/05/25 06:49:01;;;;;;;20.20;6.50;;;12.80;63.60;;;;;;5032675;28;20490;-71
2023/05/25 06:51:27;;;;;;;21.50;5.68;;;13.00;61.10;;;;;;5032942;28;20436;-72
2023/05/25 06:53:54;;;;;;;12.35;4.80;;;13.30;60.80;;;;;;5032681;28;20103;-70
2023/05/25 06:56:21;;;;;;;14.25;5.88;;;13.40;59.30;;;;;;5032724;28;20017;-70
2023/05/25 06:58:47;;;;;;;18.70;6.57;;;13.50;59.20;;;;;;5032900;28;20051;-70
2023/05/25 07:01:13;;;;;;;16.92;5.85;;;13.50;57.60;;;;;;5032690;28;20030;-71
2023/05/25 07:03:38;;;;;;;17.05;5.88;;;13.60;58.30;;;;;;5032655;28;20018;-70
2023/05/25 07:06:05;;;;;;;14.95;6.47;;;13.60;57.80;;;;;;5032678;28;20382;-70
2023/05/25 07:08:30;;;;;;;17.35;6.78;;;13.60;57.80;;;;;;5034914;28;20034;-79
2023/05/25 07:10:56;;;;;;;16.55;5.97;;;13.50;57.20;;;;;;5036972;28;20033;-73
2023/05/25 07:13:22;;;;;;;20.33;7.38;;;13.10;57.80;;;;;;5036678;28;20030;-81
2023/05/25 07:15:48;;;;;;;13.85;6.15;;;12.90;59.10;;;;;;5037276;28;20026;-72
2023/05/25 07:18:14;;;;;;;16.17;6.38;;;12.70;60.10;;;;;;5036494;28;20466;-72
2023/05/25 07:20:43;;;;;;;16.63;6.82;;;12.40;61.20;;;;;;5036562;28;20014;-72
2023/05/25 07:23:09;;;;;;;21.70;7.50;;;12.10;62.40;;;;;;5036342;28;20029;-73
2023/05/25 07:25:36;;;;;;;17.13;6.35;;;12.10;62.80;;;;;;5036547;28;20021;-74
2023/05/25 07:28:02;;;;;;;22.48;8.23;;;11.90;63.50;;;;;;5036248;28;20036;-72
2023/05/25 07:30:27;;;;;;;17.23;7.63;;;11.70;64.60;;;;;;5036499;28;20136;-73
2023/05/25 07:32:53;;;;;;;21.73;7.82;;;11.70;65.00;;;;;;5036541;28;20107;-73
2023/05/25 07:35:18;;;;;;;16.95;7.68;;;11.60;65.60;;;;;;5036353;28;20036;-73
2023/05/25 07:37:44;;;;;;;25.83;8.00;;;11.60;66.10;;;;;;5035945;28;20104;-73
2023/05/25 07:40:09;;;;;;;17.95;8.00;;;11.60;66.70;;;;;;5034532;28;20025;-73
2023/05/25 07:42:35;;;;;;;19.10;7.35;;;11.70;66.50;;;;;;5036020;28;20033;-72
2023/05/25 07:45:01;;;;;;;23.80;9.70;;;11.60;66.20;;;;;;5035841;28;20025;-72
2023/05/25 07:47:27;;;;;;;18.27;7.53;;;11.70;66.20;;;;;;5034024;28;20478;-72
2023/05/25 07:49:53;;;;;;;16.60;7.15;;;11.70;66.30;;;;;;5035686;28;20045;-72
2023/05/25 07:52:19;;;;;;;19.65;7.68;;;11.80;66.20;;;;;;5035713;28;20088;-73
2023/05/25 07:54:45;;;;;;;19.23;7.55;;;11.90;66.50;;;;;;5035584;28;20434;-72
2023/05/25 07:57:10;;;;;;;18.88;8.05;;;11.90;66.00;;;;;;5035482;28;20057;-72
2023/05/25 07:59:36;;;;;;;19.52;7.97;;;12.00;65.70;;;;;;5035319;28;20176;-72
2023/05/25 08:02:02;;;;;;;15.52;7.20;;;12.00;65.60;;;;;;5035183;28;20024;-71
2023/05/25 08:04:29;;;;;;;18.13;7.63;;;12.10;66.00;;;;;;5035203;28;20529;-72
2023/05/25 08:06:56;;;;;;;19.35;7.32;;;12.20;65.80;;;;;;5035245;28;20026;-72
2023/05/25 08:09:21;;;;;;;25.60;7.85;;;12.20;65.50;;;;;;5035420;28;20071;-72
2023/05/25 08:11:47;;;;;;;19.50;8.52;;;12.20;65.40;;;;;;5035047;28;20436;-72
2023/05/25 08:14:12;;;;;;;19.55;8.02;;;12.30;65.50;;;;;;5035314;28;20038;-72
2023/05/25 08:16:38;;;;;;;15.88;7.78;;;12.40;65.50;;;;;;5035051;28;20474;-72
2023/05/25 08:19:03;;;;;;;19.02;8.32;;;12.50;65.70;;;;;;5034395;28;20390;-73
2023/05/25 08:21:29;;;;;;;14.43;7.40;;;12.60;65.20;;;;;;5035116;28;20025;-72
2023/05/25 08:23:55;;;;;;;23.83;8.73;;;12.70;64.90;;;;;;5035274;28;20025;-72
2023/05/25 08:26:21;;;;;;;16.17;7.45;;;12.80;64.70;;;;;;5035280;28;20025;-72
2023/05/25 08:28:47;;;;;;;23.58;9.55;;;12.80;64.80;;;;;;5034633;28;20022;-74
2023/05/25 08:31:12;;;;;;;18.55;8.27;;;12.90;64.40;;;;;;5033135;28;20041;-73
2023/05/25 08:33:38;;;;;;;19.92;8.38;;;13.00;64.20;;;;;;5034298;28;20087;-73
2023/05/25 08:36:04;;;;;;;19.23;8.35;;;13.00;64.10;;;;;;5034742;28;20029;-73
2023/05/25 08:38:30;;;;;;;17.38;8.07;;;13.10;64.20;;;;;;5034680;28;20025;-73
2023/05/25 08:41:05;;;;;;;20.60;8.80;;;13.10;64.50;;;;;;5034588;28;20020;-73
2023/05/25 08:43:32;;;;;;;17.73;8.02;;;13.30;64.50;;;;;;5034531;28;20033;-73
2023/05/25 08:46:03;;;;;;;23.77;8.52;;;13.40;63.90;;;;;;5034609;28;20036;-73
2023/05/25 08:48:36;;;;;;;18.70;8.63;;;13.60;63.20;;;;;;5034244;28;20123;-73
2023/05/25 08:51:07;;;;;;;16.27;8.07;;;13.80;63.00;;;;;;5034720;28;20140;-73
2023/05/25 08:53:40;;;;;;;18.13;8.90;;;13.90;62.40;;;;;;5034392;28;20044;-73
2023/05/25 08:56:20;;;;;;;16.80;7.32;;;14.10;61.90;;;;;;5034497;28;20025;-73
2023/05/25 08:58:56;;;;;;;28.08;12.10;;;14.30;61.40;;;;;;5033188;28;20454;-73
2023/05/25 09:01:26;;;;;;;20.90;11.13;;;14.40;60.70;;;;;;5034297;28;20104;-73
2023/05/25 09:03:53;;;;;;;19.85;9.52;;;14.50;60.30;;;;;;5034390;28;20427;-73
2023/05/25 09:06:19;;;;;;;20.50;9.20;;;14.70;60.40;;;;;;5034207;28;20086;-73
2023/05/25 09:08:45;;;;;;;18.08;9.18;;;14.80;60.50;;;;;;5034306;28;20018;-73
2023/05/25 09:11:12;;;;;;;19.38;9.02;;;14.90;60.10;;;;;;5034300;28;20052;-73
2023/05/25 09:13:39;;;;;;;20.70;8.60;;;14.90;59.80;;;;;;5034194;28;20048;-72
2023/05/25 09:16:05;;;;;;;18.85;9.07;;;15.00;59.80;;;;;;5034078;28;20030;-73
2023/05/25 09:18:31;;;;;;;18.92;8.27;;;15.10;59.80;;;;;;5034184;28;20037;-73
2023/05/25 09:20:56;;;;;;;16.92;7.97;;;15.20;59.40;;;;;;5034404;28;20076;-73
2023/05/25 09:23:22;;;;;;;21.13;9.40;;;15.40;59.60;;;;;;5034161;28;20441;-73
2023/05/25 09:25:49;;;;;;;21.00;9.57;;;15.40;58.90;;;;;;5033951;28;20527;-72
2023/05/25 09:28:19;;;;;;;20.27;9.02;;;15.20;59.20;;;;;;5033966;28;20069;-72
2023/05/25 09:30:44;;;;;;;17.65;8.15;;;15.40;59.50;;;;;;5033241;28;20336;-72
2023/05/25 09:33:16;;;;;;;17.17;8.93;;;15.60;59.40;;;;;;5033801;28;20040;-72
2023/05/25 09:35:43;;;;;;;23.63;9.27;;;15.70;59.10;;;;;;5033899;28;20101;-72
2023/05/25 09:38:11;;;;;;;20.77;8.60;;;15.90;59.00;;;;;;5032716;28;20070;-73
2023/05/25 09:40:37;;;;;;;25.08;10.02;;;16.00;58.00;;;;;;5033546;28;20025;-72
2023/05/25 09:43:03;;;;;;;24.70;9.60;;;15.90;58.10;;;;;;5033464;28;20029;-72
2023/05/25 09:45:30;;;;;;;17.45;9.68;;;15.90;58.60;;;;;;5033539;28;20018;-72
2023/05/25 09:47:56;;;;;;;20.83;9.98;;;16.10;58.30;;;;;;5033535;28;20042;-72
2023/05/25 09:50:22;;;;;;;17.60;8.95;;;16.20;57.90;;;;;;5033539;28;20140;-72
2023/05/25 09:52:48;;;;;;;24.65;10.00;;;16.50;57.90;;;;;;5033659;28;20501;-72
2023/05/25 09:55:14;;;;;;;17.55;9.20;;;16.60;56.90;;;;;;5033513;28;20065;-73
2023/05/25 09:57:40;;;;;;;18.23;8.60;;;16.70;57.10;;;;;;5033357;28;20029;-73
2023/05/25 10:00:07;;;;;;;19.58;9.02;;;16.90;56.40;;;;;;5033124;28;20028;-73
2023/05/25 10:02:33;;;;;;;21.33;11.68;;;16.90;56.30;;;;;;5033184;28;20045;-72
2023/05/25 10:04:59;;;;;;;16.80;9.43;;;16.90;56.30;;;;;;5032718;28;20029;-72
2023/05/25 10:07:25;;;;;;;15.85;8.20;;;17.00;56.60;;;;;;5032179;28;20079;-72
2023/05/25 10:09:53;;;;;;;19.73;9.55;;;17.30;56.30;;;;;;5032746;28;20056;-73
2023/05/25 10:12:22;;;;;;;18.98;10.27;;;17.50;55.40;;;;;;5032598;28;20113;-73
2023/05/25 10:14:50;;;;;;;17.02;8.93;;;17.60;54.90;;;;;;5032638;28;20036;-74
2023/05/25 10:17:21;;;;;;;15.32;8.35;;;17.60;54.50;;;;;;5032743;28;20473;-73
2023/05/25 10:19:59;;;;;;;21.65;12.70;;;17.80;54.70;;;;;;5031589;28;20524;-75
2023/05/25 10:22:50;;;;;;;17.52;9.77;;;18.00;54.40;;;;;;5032864;28;20521;-75
2023/05/25 10:25:27;;;;;;;19.02;9.05;;;18.00;53.60;;;;;;5031643;28;20033;-75
2023/05/25 10:28:00;;;;;;;24.90;9.20;;;18.10;53.80;;;;;;5032569;28;20390;-74
2023/05/25 10:30:26;;;;;;;17.23;7.43;;;18.20;53.80;;;;;;5034511;28;20032;-75
2023/05/25 10:32:54;;;;;;;16.23;7.95;;;18.50;54.90;;;;;;5033029;28;20099;-74
2023/05/25 10:35:21;;;;;;;13.73;8.27;;;18.90;54.30;;;;;;5033196;28;20393;-73
2023/05/25 10:37:47;;;;;;;19.10;8.40;;;19.20;53.10;;;;;;5032982;28;20121;-74
2023/05/25 10:40:14;;;;;;;12.68;7.95;;;19.60;51.50;;;;;;5033137;28;20084;-74
2023/05/25 10:42:40;;;;;;;15.10;8.32;;;20.00;50.80;;;;;;5032493;28;20458;-72
2023/05/25 10:45:07;;;;;;;16.27;8.63;;;20.20;49.60;;;;;;5032434;28;20489;-74
2023/05/25 10:47:40;;;;;;;17.02;7.55;;;20.10;48.60;;;;;;5032240;28;20108;-74
2023/05/25 10:50:17;;;;;;;17.23;9.25;;;20.20;48.50;;;;;;5032160;28;20571;-73
2023/05/25 10:52:43;;;;;;;16.30;7.40;;;20.10;48.30;;;;;;5030389;28;20390;-72
2023/05/25 10:55:08;;;;;;;16.63;7.70;;;20.30;49.70;;;;;;5032234;28;20024;-72
2023/05/25 10:57:34;;;;;;;13.15;7.30;;;20.60;49.00;;;;;;5032272;28;20106;-73
2023/05/25 11:00:05;;;;;;;18.73;9.38;;;20.90;48.40;;;;;;5032098;28;20018;-73
2023/05/25 11:02:46;;;;;;;17.85;9.82;;;21.10;47.60;;;;;;5032105;28;20408;-72
2023/05/25 11:05:27;;;;;;;15.93;9.63;;;21.00;47.00;;;;;;5032069;28;20481;-72
2023/05/25 11:08:01;;;;;;;19.17;8.60;;;21.00;48.10;;;;;;5031086;28;20032;-72
2023/05/25 11:10:48;;;;;;;16.38;7.80;;;20.90;47.80;;;;;;5032455;28;20124;-73
2023/05/25 11:13:42;;;;;;;16.73;9.07;;;20.80;47.60;;;;;;5031914;28;20038;-73
2023/05/25 11:16:21;;;;;;;20.10;9.43;;;20.60;48.00;;;;;;5031928;28;20112;-73
2023/05/25 11:18:56;;;;;;;23.15;11.18;;;20.10;48.90;;;;;;5032325;28;20022;-73
2023/05/25 11:21:25;;;;;;;14.60;8.55;;;19.80;50.10;;;;;;5032119;28;20066;-73
2023/05/25 11:24:13;;;;;;;16.45;8.40;;;19.70;51.10;;;;;;5032187;28;20148;-73
2023/05/25 11:26:59;;;;;;;18.55;9.05;;;19.90;51.30;;;;;;5031946;28;20021;-73
2023/05/25 11:29:30;;;;;;;16.50;8.88;;;20.00;51.20;;;;;;5030880;28;20104;-73
2023/05/25 11:31:55;;;;;;;20.38;9.57;;;20.20;51.10;;;;;;5031880;28;20470;-73
2023/05/25 11:34:28;;;;;;;18.33;9.63;;;20.10;50.20;;;;;;5032001;28;20075;-73
2023/05/25 11:37:02;;;;;;;15.63;8.98;;;20.00;50.20;;;;;;5032058;28;20102;-73
2023/05/25 11:39:30;;;;;;;15.07;8.20;;;20.20;50.70;;;;;;5032214;28;20462;-73
2023/05/25 11:42:03;;;;;;;16.88;8.77;;;20.40;50.00;;;;;;5031778;28;20033;-73
2023/05/25 11:44:30;;;;;;;22.30;8.95;;;20.40;49.30;;;;;;5031924;28;20079;-73
2023/05/25 11:47:00;;;;;;;18.13;8.73;;;20.40;49.50;;;;;;5032093;28;20362;-73
2023/05/25 11:49:26;;;;;;;21.75;9.25;;;20.40;49.80;;;;;;5032185;28;20111;-73
2023/05/25 11:52:07;;;;;;;18.30;9.02;;;20.50;49.70;;;;;;5032177;28;20107;-73
2023/05/25 11:54:33;;;;;;;14.05;7.78;;;20.70;49.70;;;;;;5032612;28;20033;-73
2023/05/25 11:57:00;;;;;;;15.90;9.57;;;20.80;49.70;;;;;;5035413;28;20386;-73
2023/05/25 11:59:26;;;;;;;19.48;10.05;;;20.90;48.70;;;;;;5035812;28;20033;-72
2023/05/25 12:02:00;;;;;;;18.10;8.77;;;20.90;47.80;;;;;;5035603;28;20013;-73
2023/05/25 12:04:26;;;;;;;18.23;8.57;;;20.40;49.10;;;;;;5035575;28;20018;-73
2023/05/25 12:06:51;;;;;;;17.92;9.63;;;20.50;49.50;;;;;;5035476;28;20087;-73
2023/05/25 12:09:21;;;;;;;16.08;8.95;;;20.60;49.00;;;;;;5035583;28;20500;-73
2023/05/25 12:11:47;;;;;;;22.27;9.68;;;20.50;49.10;;;;;;5035346;28;20025;-73
2023/05/25 12:14:13;;;;;;;18.55;8.90;;;20.80;49.50;;;;;;5035391;28;20041;-73
2023/05/25 12:16:40;;;;;;;15.25;7.85;;;20.80;48.60;;;;;;5035438;28;20063;-73
2023/05/25 12:19:06;;;;;;;12.07;7.03;;;20.90;49.30;;;;;;5035212;28;20033;-73
2023/05/25 12:21:33;;;;;;;17.92;9.07;;;21.00;49.20;;;;;;5035114;28;20057;-73
2023/05/25 12:24:00;;;;;;;17.23;8.65;;;21.20;47.70;;;;;;5033745;28;20069;-73
2023/05/25 12:26:27;;;;;;;16.58;8.63;;;20.70;48.80;;;;;;5034900;28;20051;-73
2023/05/25 12:29:05;;;;;;;13.15;7.35;;;20.90;48.60;;;;;;5035004;28;20025;-73
2023/05/25 12:31:37;;;;;;;15.70;7.07;;;21.30;48.60;;;;;;5033660;28;20018;-73
2023/05/25 12:34:03;;;;;;;12.43;7.60;;;22.00;47.90;;;;;;5034955;28;20075;-73
2023/05/25 12:36:37;;;;;;;13.68;7.25;;;22.30;45.40;;;;;;5035146;28;20426;-74
2023/05/25 12:39:03;;;;;;;19.58;7.85;;;22.20;45.30;;;;;;5033703;28;20130;-73